Time;durP1;ratioP1;P1;durP2;ratioP2;P2;SDS_P1;SDS_P2;PMS_P1;PMS_P2;Temp;Humidity;BMP_temperature;BMP_pressure;BME280_temperature;BME280_humidity;BME280_pressure;Samples;Min_cycle;Max_cycle;Signal;HPM_P1;HPM_P2
2022/12/10 00:01:44;;;;;;;39.70;14.18;;;;;;;-3.42;100.00;100557.56;5032478;28;20065;-73
2022/12/10 00:04:11;;;;;;;27.40;11.15;;;;;;;-3.46;100.00;100558.69;4999916;28;20056;-73
2022/12/10 00:06:38;;;;;;;27.08;12.20;;;;;;;-3.53;100.00;100566.06;5032371;28;20087;-73
2022/12/10 00:09:12;;;;;;;31.83;12.48;;;;;;;-3.56;100.00;100558.38;5016299;28;20052;-74
2022/12/10 00:11:39;;;;;;;35.22;12.00;;;;;;;-3.55;100.00;100565.34;5032358;28;20026;-73
2022/12/10 00:14:06;;;;;;;22.83;10.40;;;;;;;-3.53;100.00;100563.44;4999835;28;20072;-73
2022/12/10 00:16:33;;;;;;;24.17;9.85;;;;;;;-3.49;100.00;100571.16;4999870;28;20090;-73
2022/12/10 00:18:59;;;;;;;24.17;11.10;;;;;;;-3.47;100.00;100569.28;4999547;28;20037;-74
2022/12/10 00:21:35;;;;;;;35.80;13.95;;;;;;;-3.57;100.00;100553.22;4999700;28;20472;-73
2022/12/10 00:24:02;;;;;;;25.13;10.55;;;;;;;-3.44;100.00;100579.59;5033280;28;20166;-73
2022/12/10 00:26:30;;;;;;;28.98;12.75;;;;;;;-3.42;100.00;100577.75;5015551;28;20029;-73
2022/12/10 00:28:56;;;;;;;16.77;8.15;;;;;;;-3.37;100.00;100580.94;4999457;28;20031;-75
2022/12/10 00:31:25;;;;;;;28.08;12.25;;;;;;;-3.40;100.00;100560.09;5015420;28;20032;-73
2022/12/10 00:33:50;;;;;;;37.17;12.30;;;;;;;-3.34;100.00;100575.50;4999572;28;20479;-75
2022/12/10 00:36:19;;;;;;;23.48;9.45;;;;;;;-3.39;100.00;100572.31;5015526;28;20030;-75
2022/12/10 00:38:46;;;;;;;22.52;11.05;;;;;;;-3.38;100.00;100576.63;5031964;28;20117;-74
2022/12/10 00:41:14;;;;;;;30.48;10.98;;;;;;;-3.37;100.00;100573.06;4999218;28;20187;-75
2022/12/10 00:43:43;;;;;;;33.90;12.18;;;;;;;-3.36;100.00;100570.34;5015920;28;20033;-75
2022/12/10 00:46:09;;;;;;;29.73;11.85;;;;;;;-3.39;100.00;100567.88;5032067;28;20116;-75
2022/12/10 00:48:35;;;;;;;21.80;10.10;;;;;;;-3.48;100.00;100550.03;5001009;28;20052;-75
2022/12/10 00:51:10;;;;;;;25.73;12.40;;;;;;;-3.48;100.00;100557.94;5035807;28;20029;-74
2022/12/10 00:53:37;;;;;;;13.52;7.13;;;;;;;-3.50;100.00;100559.78;5019600;28;20029;-74
2022/12/10 00:56:03;;;;;;;26.98;11.45;;;;;;;-3.56;100.00;100555.75;5035600;28;20103;-74
2022/12/10 00:58:31;;;;;;;14.40;8.50;;;;;;;-3.56;100.00;100565.41;5003283;28;20030;-74
2022/12/10 01:01:24;;;;;;;38.92;12.75;;;;;;;-3.57;100.00;100563.75;5019281;28;20390;-74
2022/12/10 01:03:52;;;;;;;;;;;;;;;-3.63;100.00;100557.03;5036384;28;20084;-72
2022/12/10 01:06:30;;;;;;;18.05;8.57;;;;;;;-3.68;100.00;100561.72;5035844;28;19996;-74
2022/12/10 01:08:58;;;;;;;21.48;9.30;;;;;;;-3.69;100.00;100562.66;5036020;28;20052;-75
2022/12/10 01:11:30;;;;;;;20.30;9.70;;;;;;;-3.73;100.00;100553.28;5035578;28;20124;-74
2022/12/10 01:13:56;;;;;;;24.48;9.23;;;;;;;-3.71;100.00;100556.66;5019310;28;20040;-74
2022/12/10 01:16:22;;;;;;;20.13;9.10;;;;;;;-3.70;100.00;100563.59;5002944;28;20030;-75
2022/12/10 01:18:48;;;;;;;22.92;11.77;;;;;;;-3.71;100.00;100561.91;5035511;28;20026;-74
2022/12/10 01:21:18;;;;;;;19.30;8.48;;;;;;;-3.73;100.00;100555.91;5019289;28;20041;-74
2022/12/10 01:23:45;;;;;;;24.48;10.65;;;;;;;-3.71;100.00;100564.53;5019222;28;20065;-74
2022/12/10 01:26:14;;;;;;;22.27;11.75;;;;;;;-3.77;100.00;100554.38;4986927;28;20037;-73
2022/12/10 01:28:41;;;;;;;24.73;9.90;;;;;;;-3.84;100.00;100543.38;5035159;28;20177;-73
2022/12/10 01:31:10;;;;;;;28.75;14.43;;;;;;;-3.77;100.00;100546.50;5019043;28;20091;-74
2022/12/10 01:33:36;;;;;;;33.15;12.82;;;;;;;-3.80;100.00;100554.56;5018890;28;20064;-73
2022/12/10 01:36:08;;;;;;;25.60;11.23;;;;;;;-3.79;100.00;100551.84;5001966;28;20033;-73
2022/12/10 01:38:33;;;;;;;22.00;9.40;;;;;;;-3.77;100.00;100551.75;5035043;28;20130;-73
2022/12/10 01:41:00;;;;;;;19.98;9.52;;;;;;;-3.77;100.00;100549.13;5034347;28;20507;-74
2022/12/10 01:43:26;;;;;;;24.58;9.05;;;;;;;-3.86;100.00;100542.63;5034118;28;20047;-73
2022/12/10 01:45:52;;;;;;;18.05;9.25;;;;;;;-3.86;100.00;100544.44;5050255;28;20070;-73
2022/12/10 01:48:19;;;;;;;23.33;11.25;;;;;;;-3.88;100.00;100538.41;5001194;28;20124;-73
2022/12/10 01:50:48;;;;;;;27.40;11.25;;;;;;;-3.93;100.00;100540.44;5033887;28;20026;-73
2022/12/10 01:53:14;;;;;;;24.48;9.93;;;;;;;-3.93;100.00;100543.06;5001210;28;20033;-73
2022/12/10 01:55:44;;;;;;;12.05;6.07;;;;;;;-3.94;100.00;100544.00;5017378;28;20463;-74
2022/12/10 01:58:10;;;;;;;19.35;6.90;;;;;;;-3.93;100.00;100543.06;5017040;28;20033;-73
2022/12/10 02:00:41;;;;;;;19.23;9.50;;;;;;;-3.93;100.00;100537.81;5016628;28;20033;-73
2022/12/10 02:03:14;;;;;;;18.02;8.25;;;;;;;-3.97;100.00;100537.13;5017521;28;20045;-73
2022/12/10 02:05:51;;;;;;;32.13;12.85;;;;;;;-3.96;100.00;100545.88;5033683;28;20048;-73
2022/12/10 02:08:33;;;;;;;21.73;9.30;;;;;;;-3.94;100.00;100531.72;5017295;28;20044;-73
2022/12/10 02:11:24;;;;;;;25.70;10.57;;;;;;;-4.03;100.00;100519.97;5001201;28;20073;-73
2022/12/10 02:14:28;;;;;;;19.80;9.17;;;;;;;-3.96;100.00;100535.38;5016373;28;20034;-73
2022/12/10 02:17:07;;;;;;;19.98;8.52;;;;;;;-3.98;100.00;100536.28;5006502;28;20119;-73
2022/12/10 02:19:57;;;;;;;19.85;8.13;;;;;;;-4.01;100.00;100533.84;5033650;28;20449;-73
2022/12/10 02:22:26;;;;;;;20.88;9.55;;;;;;;-4.00;100.00;100546.03;5033621;28;20033;-73
2022/12/10 02:24:53;;;;;;;19.45;9.25;;;;;;;-4.06;100.00;100525.38;5000623;28;20045;-74
2022/12/10 02:27:24;;;;;;;20.58;8.43;;;;;;;-4.04;100.00;100533.19;5049901;28;20030;-73
2022/12/10 02:29:52;;;;;;;16.20;7.97;;;;;;;-4.03;100.00;100524.38;5033046;28;20033;-73
2022/12/10 02:32:21;;;;;;;19.08;8.02;;;;;;;-4.01;100.00;100527.75;5016876;28;20034;-73
2022/12/10 02:34:52;;;;;;;17.13;7.75;;;;;;;-4.00;100.00;100529.44;5016932;28;20044;-73
2022/12/10 02:37:22;;;;;;;12.52;7.82;;;;;;;-4.01;100.00;100533.84;5016951;28;20048;-73
2022/12/10 02:39:50;;;;;;;19.00;9.20;;;;;;;-4.01;100.00;100530.38;5000162;28;20116;-74
2022/12/10 02:42:16;;;;;;;18.85;8.23;;;;;;;-3.99;100.00;100531.16;4988489;28;1299362;-73
2022/12/10 02:44:43;;;;;;;8.15;4.97;;;;;;;-4.02;100.00;100529.53;5001540;28;20049;-73
2022/12/10 02:47:09;;;;;;;24.30;9.02;;;;;;;-3.98;100.00;100532.81;5034053;28;20053;-73
2022/12/10 02:49:35;;;;;;;23.52;10.10;;;;;;;-3.98;100.00;100535.47;5017454;28;20103;-73
2022/12/10 02:52:10;;;;;;;14.68;7.25;;;;;;;-4.00;100.00;100535.53;5017485;28;20029;-73
2022/12/10 02:54:44;;;;;;;21.80;8.32;;;;;;;-3.92;100.00;100534.25;5017535;28;20034;-73
2022/12/10 02:57:33;;;;;;;21.65;10.00;;;;;;;-3.90;100.00;100530.59;5017633;28;20025;-73
2022/12/10 03:00:15;;;;;;;11.05;5.60;;;;;;;-3.88;100.00;100522.66;5034245;28;20029;-73
2022/12/10 03:03:12;;;;;;;15.65;7.00;;;;;;;-3.74;100.00;100527.94;5034041;28;20048;-73
2022/12/10 03:05:59;;;;;;;22.58;10.57;;;;;;;-3.68;100.00;100527.56;5050429;28;20052;-73
2022/12/10 03:08:54;;;;;;;11.50;6.43;;;;;;;-3.62;100.00;100523.75;5034751;28;20025;-73
2022/12/10 03:11:22;;;;;;;17.70;9.55;;;;;;;-3.60;100.00;100524.47;5047461;28;20042;-73
2022/12/10 03:13:58;;;;;;;24.23;11.50;;;;;;;-3.61;100.00;100522.78;5001144;28;20067;-73
2022/12/10 03:16:28;;;;;;;16.52;8.52;;;;;;;-3.60;100.00;100522.72;5033352;28;20486;-73
2022/12/10 03:18:58;;;;;;;25.63;10.85;;;;;;;-3.58;100.00;100518.19;5033509;28;20059;-73
2022/12/10 03:21:26;;;;;;;25.23;9.43;;;;;;;-3.59;100.00;100518.31;5000895;28;20510;-73
2022/12/10 03:23:51;;;;;;;24.48;10.23;;;;;;;-3.57;100.00;100517.28;5000366;28;20437;-73
2022/12/10 03:26:18;;;;;;;21.98;9.68;;;;;;;-3.56;100.00;100512.84;5000718;28;20033;-73
2022/12/10 03:28:50;;;;;;;18.95;9.45;;;;;;;-3.70;100.00;100492.66;5017118;28;20091;-73
2022/12/10 03:31:20;;;;;;;22.00;9.13;;;;;;;-3.61;100.00;100510.50;5016866;28;20037;-73
2022/12/10 03:33:47;;;;;;;16.38;9.18;;;;;;;-3.65;100.00;100509.00;5016905;28;20064;-73
2022/12/10 03:36:13;;;;;;;22.48;10.68;;;;;;;-3.67;100.00;100499.53;5000330;28;20387;-74
2022/12/10 03:38:40;;;;;;;25.73;10.80;;;;;;;-3.77;100.00;100500.06;5000669;28;20044;-74
2022/12/10 03:41:06;;;;;;;22.88;10.15;;;;;;;-3.76;100.00;100500.88;5000326;28;20033;-74
2022/12/10 03:43:32;;;;;;;27.88;10.70;;;;;;;-3.82;100.00;100491.59;5000567;28;20490;-74
2022/12/10 03:45:58;;;;;;;21.23;9.20;;;;;;;-3.87;100.00;100477.03;5000334;28;20064;-73
2022/12/10 03:48:23;;;;;;;24.67;9.38;;;;;;;-3.89;100.00;100486.78;5000547;28;20052;-73
2022/12/10 03:50:49;;;;;;;27.80;10.77;;;;;;;-3.89;100.00;100479.78;5000337;28;20030;-73
2022/12/10 03:53:15;;;;;;;6.28;5.25;;;;;;;-3.91;100.00;100480.81;5000268;28;20537;-74
2022/12/10 03:55:40;;;;;;;21.70;8.70;;;;;;;-3.97;100.00;100484.59;5016644;28;20033;-73
2022/12/10 03:58:06;;;;;;;18.20;9.48;;;;;;;-3.95;100.00;100480.13;5016497;28;20387;-72
2022/12/10 04:00:32;;;;;;;21.92;9.18;;;;;;;-3.98;100.00;100486.41;5016616;28;20029;-73
2022/12/10 04:02:58;;;;;;;11.23;7.60;;;;;;;-4.01;100.00;100478.69;5032368;28;20380;-72
2022/12/10 04:05:23;;;;;;;17.35;8.25;;;;;;;-4.02;100.00;100471.78;5016173;28;20033;-73
2022/12/10 04:07:49;;;;;;;20.40;10.13;;;;;;;-4.06;100.00;100475.50;5000209;28;20482;-73
2022/12/10 04:10:15;;;;;;;17.98;7.82;;;;;;;-4.06;100.00;100477.28;5000049;28;20032;-73
2022/12/10 04:12:41;;;;;;;21.33;9.32;;;;;;;-4.06;100.00;100469.41;4999922;28;20033;-72
2022/12/10 04:17:52;;;;;;;21.55;11.65;;;;;;;-4.09;100.00;100470.44;5032689;28;20434;-73
2022/12/10 04:28:30;;;;;;;14.98;7.88;;;;;;;-4.08;100.00;100464.22;5032449;28;20440;-75
2022/12/10 04:30:56;;;;;;;24.65;9.55;;;;;;;-4.13;100.00;100460.19;5032278;28;20120;-73
2022/12/10 04:33:22;;;;;;;17.90;7.72;;;;;;;-4.21;100.00;100452.75;4999732;28;20100;-73
2022/12/10 04:35:47;;;;;;;18.35;7.82;;;;;;;-4.21;100.00;100461.50;5032157;28;20030;-73
2022/12/10 04:38:13;;;;;;;26.75;10.77;;;;;;;-4.25;100.00;100461.75;5032385;28;20112;-73
2022/12/10 04:40:39;;;;;;;16.55;8.73;;;;;;;-4.28;100.00;100469.81;5015831;28;20434;-73
2022/12/10 04:43:04;;;;;;;24.58;10.90;;;;;;;-4.33;100.00;100470.06;5015687;28;20029;-73
2022/12/10 04:45:30;;;;;;;21.20;8.73;;;;;;;-4.33;100.00;100467.44;4999737;28;20033;-73
2022/12/10 04:47:56;;;;;;;20.98;9.88;;;;;;;-4.35;100.00;100464.06;5016014;28;20033;-73
2022/12/10 04:50:21;;;;;;;24.58;10.88;;;;;;;-4.44;100.00;100454.09;4999519;28;20033;-73
2022/12/10 04:52:47;;;;;;;26.00;9.85;;;;;;;-4.47;100.00;100456.91;4999645;28;20041;-73
2022/12/10 04:55:13;;;;;;;29.15;11.52;;;;;;;-4.50;100.00;100457.91;5015976;28;20432;-73
2022/12/10 04:57:39;;;;;;;29.95;10.57;;;;;;;-4.54;100.00;100463.41;5015492;28;20049;-73
2022/12/10 05:00:05;;;;;;;21.60;8.05;;;;;;;-4.61;100.00;100460.28;4999420;28;20033;-73
2022/12/10 05:02:30;;;;;;;21.30;8.63;;;;;;;-4.54;100.00;100464.25;5015768;28;20375;-73
2022/12/10 05:04:56;;;;;;;17.67;8.80;;;;;;;-4.52;100.00;100459.78;5015496;28;20029;-74
2022/12/10 05:07:22;;;;;;;16.27;7.55;;;;;;;-4.42;100.00;100471.44;4999634;28;20037;-74
2022/12/10 05:09:48;;;;;;;22.77;9.48;;;;;;;-4.34;100.00;100468.38;4999442;28;20049;-73
2022/12/10 05:12:14;;;;;;;18.15;9.98;;;;;;;-4.28;100.00;100467.19;4999213;28;20029;-73
2022/12/10 05:14:39;;;;;;;21.77;8.45;;;;;;;-4.26;100.00;100457.41;5031680;28;20037;-73
2022/12/10 05:17:05;;;;;;;3.65;3.28;;;;;;;-4.22;100.00;100472.06;5015832;28;20041;-72
2022/12/10 05:19:31;;;;;;;22.27;8.32;;;;;;;-4.21;100.00;100473.75;5015443;28;20151;-73
2022/12/10 05:24:41;;;;;;;22.25;9.75;;;;;;;-4.00;100.00;100498.75;5018169;28;20040;-73
2022/12/10 05:27:06;;;;;;;16.10;8.90;;;;;;;-3.94;100.00;100494.97;5015468;28;20033;-72
2022/12/10 05:29:33;;;;;;;24.45;9.10;;;;;;;-3.85;100.00;100490.94;5015079;28;20033;-75
2022/12/10 05:31:59;;;;;;;28.35;11.77;;;;;;;-3.46;100.00;100486.88;5015353;28;20036;-74
2022/12/10 05:34:24;;;;;;;31.23;11.32;;;;;;;-2.91;100.00;100459.78;5000500;28;20033;-73
2022/12/10 05:36:50;;;;;;;30.58;13.90;;;;;;;-2.27;100.00;100457.44;5018888;28;20040;-75
2022/12/10 05:39:18;;;;;;;30.02;13.52;;;;;;;-1.98;100.00;100437.06;5019151;28;20044;-74
2022/12/10 05:41:45;;;;;;;38.70;15.63;;;;;;;-1.69;100.00;100447.38;5002731;28;20033;-73
2022/12/10 05:44:11;;;;;;;26.13;11.55;;;;;;;-1.61;100.00;100440.66;5019230;28;20037;-72
2022/12/10 05:46:37;;;;;;;19.73;10.27;;;;;;;-1.64;100.00;100434.72;5002599;28;20045;-75
2022/12/10 05:49:04;;;;;;;26.15;12.07;;;;;;;-1.78;100.00;100428.63;5035086;28;20044;-73
2022/12/10 05:51:34;;;;;;;27.25;11.75;;;;;;;-2.01;100.00;100424.94;5018796;28;20108;-74
2022/12/10 05:54:04;;;;;;;29.15;10.50;;;;;;;-2.17;100.00;100431.31;5018652;28;20025;-77
2022/12/10 05:56:29;;;;;;;20.92;11.05;;;;;;;-2.34;100.00;100424.53;5035112;28;20068;-73
2022/12/10 05:58:59;;;;;;;22.77;11.00;;;;;;;-2.48;100.00;100428.09;5002388;28;20084;-73
2022/12/10 06:01:27;;;;;;;28.58;12.10;;;;;;;-2.59;100.00;100425.28;5034645;28;20174;-73
2022/12/10 06:03:52;;;;;;;35.75;13.40;;;;;;;-2.70;100.00;100418.97;5002118;28;20120;-76
2022/12/10 06:06:22;;;;;;;28.63;11.75;;;;;;;-2.87;100.00;100427.09;5002189;28;20026;-76
2022/12/10 06:08:49;;;;;;;12.13;6.55;;;;;;;-3.06;100.00;100422.16;5001713;28;20194;-73
2022/12/10 06:11:15;;;;;;;26.88;14.05;;;;;;;-3.16;100.00;100426.28;5001814;28;20048;-75
2022/12/10 06:13:41;;;;;;;21.58;9.38;;;;;;;-3.34;100.00;100420.41;5017714;28;20388;-76
2022/12/10 06:16:10;;;;;;;30.95;11.90;;;;;;;-3.44;100.00;100411.38;5018163;28;20033;-74
2022/12/10 06:18:36;;;;;;;24.25;10.98;;;;;;;-3.56;100.00;100421.72;5034385;28;20039;-73
2022/12/10 06:21:07;;;;;;;23.92;10.65;;;;;;;-3.61;100.00;100418.53;5001865;28;20118;-75
2022/12/10 06:23:37;;;;;;;25.85;11.00;;;;;;;-3.60;100.00;100427.25;5018202;28;20045;-75
2022/12/10 06:26:05;;;;;;;25.63;11.10;;;;;;;-3.56;100.00;100424.34;5033928;28;20025;-76
2022/12/10 06:28:31;;;;;;;23.65;11.85;;;;;;;-3.54;100.00;100424.25;4985661;28;20547;-75
2022/12/10 06:30:59;;;;;;;13.05;6.70;;;;;;;-3.50;100.00;100417.03;5001577;28;20116;-74
2022/12/10 06:33:25;;;;;;;22.20;11.15;;;;;;;-3.53;100.00;100405.75;5001695;28;20041;-74
2022/12/10 06:35:51;;;;;;;24.00;11.98;;;;;;;-3.50;100.00;100417.03;5017485;28;20416;-75
2022/12/10 06:38:17;;;;;;;27.15;12.10;;;;;;;-3.56;100.00;100403.31;5017889;28;20116;-75
2022/12/10 06:40:42;;;;;;;26.75;10.70;;;;;;;-3.54;100.00;100414.59;5001550;28;20118;-74
2022/12/10 06:43:08;;;;;;;29.13;12.23;;;;;;;-3.54;100.00;100411.97;5001569;28;20119;-74
2022/12/10 06:45:34;;;;;;;27.25;12.13;;;;;;;-3.56;100.00;100419.09;5000422;28;20065;-74
2022/12/10 06:47:59;;;;;;;19.17;9.60;;;;;;;-3.55;100.00;100415.53;5017616;28;20029;-74
2022/12/10 06:50:25;;;;;;;34.03;12.05;;;;;;;-3.53;100.00;100415.44;5017502;28;20120;-75
2022/12/10 06:52:51;;;;;;;25.08;13.25;;;;;;;-3.51;100.00;100428.50;5017556;28;20564;-75
2022/12/10 06:55:16;;;;;;;28.83;11.52;;;;;;;-3.51;100.00;100425.88;5016978;28;20025;-74
2022/12/10 06:57:42;;;;;;;28.23;11.93;;;;;;;-3.49;100.00;100416.94;5017140;28;20044;-74
2022/12/10 07:00:09;;;;;;;31.70;12.00;;;;;;;-3.51;100.00;100415.34;5017444;28;20033;-75
2022/12/10 07:02:34;;;;;;;6.13;4.65;;;;;;;-3.52;100.00;100419.72;5017189;28;20132;-74
2022/12/10 07:05:00;;;;;;;19.73;9.75;;;;;;;-3.43;100.00;100428.88;5034145;28;20045;-76
2022/12/10 07:07:26;;;;;;;21.27;9.95;;;;;;;-3.40;100.00;100420.78;5000806;28;20511;-74
2022/12/10 07:09:51;;;;;;;27.33;11.57;;;;;;;-3.42;100.00;100420.88;5001125;28;20115;-73
2022/12/10 07:12:17;;;;;;;21.88;9.85;;;;;;;-3.39;100.00;100422.47;5016729;28;20415;-74
2022/12/10 07:14:43;;;;;;;31.67;10.23;;;;;;;-3.40;100.00;100423.41;5033696;28;20479;-74
2022/12/10 07:17:09;;;;;;;12.10;5.72;;;;;;;-3.45;100.00;100420.22;5000871;28;20076;-74
2022/12/10 07:19:34;;;;;;;15.80;9.93;;;;;;;-3.48;100.00;100430.94;5000713;28;20145;-73
2022/12/10 07:22:00;;;;;;;20.10;10.88;;;;;;;-3.60;100.00;100419.38;5000540;28;20026;-74
2022/12/10 07:24:26;;;;;;;17.02;8.98;;;;;;;-3.57;100.00;100422.66;5000591;28;20033;-75
2022/12/10 07:26:52;;;;;;;16.40;9.70;;;;;;;-3.57;100.00;100430.56;5016971;28;20045;-74
2022/12/10 07:29:20;;;;;;;21.20;10.65;;;;;;;-3.57;100.00;100427.09;5016982;28;20387;-74
2022/12/10 07:31:49;;;;;;;22.23;9.85;;;;;;;-3.65;100.00;100424.06;5001052;28;20065;-74
2022/12/10 07:34:15;;;;;;;21.95;9.98;;;;;;;-3.65;100.00;100430.19;5000603;28;20037;-74
2022/12/10 07:36:41;;;;;;;29.63;10.55;;;;;;;-3.76;100.00;100416.81;5016796;28;20033;-74
2022/12/10 07:39:08;;;;;;;13.65;5.50;;;;;;;-3.66;100.00;100433.72;5016602;28;20114;-73
2022/12/10 07:41:35;;;;;;;24.95;10.02;;;;;;;-3.82;100.00;100407.53;5032541;28;20032;-74
2022/12/10 07:44:06;;;;;;;23.17;10.52;;;;;;;-3.64;100.00;100437.13;4984096;28;20041;-75
2022/12/10 07:46:32;;;;;;;19.63;8.73;;;;;;;-3.63;100.00;100430.91;5016570;28;20037;-76
2022/12/10 07:49:01;;;;;;;21.38;8.98;;;;;;;-3.63;100.00;100422.19;5000103;28;20060;-74
2022/12/10 07:51:26;;;;;;;26.33;11.13;;;;;;;-3.63;100.00;100427.44;5032402;28;20088;-74
2022/12/10 07:53:53;;;;;;;29.92;11.80;;;;;;;-3.56;100.00;100426.97;5016118;28;20542;-74
2022/12/10 07:56:19;;;;;;;34.97;13.00;;;;;;;-3.53;100.00;100433.81;5016291;28;20048;-73
2022/12/10 07:58:45;;;;;;;34.33;11.40;;;;;;;-3.54;100.00;100417.22;5015817;28;20033;-74
2022/12/10 08:01:13;;;;;;;20.80;8.35;;;;;;;-3.43;100.00;100418.34;5000056;28;20072;-74
2022/12/10 08:03:39;;;;;;;21.65;9.52;;;;;;;-3.41;100.00;100417.31;4999878;28;20187;-75
2022/12/10 08:06:13;;;;;;;33.60;11.45;;;;;;;-3.48;100.00;100410.75;5032219;28;20032;-74
2022/12/10 08:08:39;;;;;;;27.92;11.82;;;;;;;-3.36;100.00;100420.50;5015810;28;20060;-75
2022/12/10 08:11:05;;;;;;;20.63;8.85;;;;;;;-3.38;100.00;100416.28;4999861;28;20044;-76
2022/12/10 08:13:33;;;;;;;28.33;10.80;;;;;;;-3.32;100.00;100416.72;5015804;28;20115;-74
2022/12/10 08:16:29;;;;;;;24.88;11.25;;;;;;;-3.29;100.00;100423.59;4999869;28;20034;-74
2022/12/10 08:18:59;;;;;;;24.15;10.82;;;;;;;-3.27;100.00;100420.88;5044492;28;20049;-73
2022/12/10 08:21:28;;;;;;;17.00;8.25;;;;;;;-3.24;100.00;100434.66;5016283;28;20041;-73
2022/12/10 08:23:55;;;;;;;23.73;9.88;;;;;;;-3.23;100.00;100427.59;4999794;28;20037;-74
2022/12/10 08:26:24;;;;;;;25.25;11.07;;;;;;;-3.19;100.00;100432.59;5031896;28;20030;-74
2022/12/10 08:28:50;;;;;;;24.10;9.85;;;;;;;-3.22;100.00;100422.28;4999805;28;20037;-74
2022/12/10 08:31:17;;;;;;;22.38;11.02;;;;;;;-3.13;100.00;100437.44;5031852;28;20079;-74
2022/12/10 08:33:43;;;;;;;33.95;12.32;;;;;;;-3.11;100.00;100434.75;5015574;28;20044;-75
2022/12/10 08:36:11;;;;;;;21.95;9.52;;;;;;;-3.08;100.00;100433.72;4999437;28;20033;-74
2022/12/10 08:38:37;;;;;;;25.80;10.43;;;;;;;-3.01;100.00;100440.28;4999018;28;20038;-75
2022/12/10 08:41:14;;;;;;;21.02;11.05;;;;;;;-2.94;100.00;100437.16;5031264;28;20041;-74
2022/12/10 08:43:40;;;;;;;11.38;6.15;;;;;;;-2.92;100.00;100439.69;5015668;28;20128;-74
2022/12/10 08:46:07;;;;;;;32.90;13.25;;;;;;;-2.90;100.00;100438.66;5031601;28;20108;-75
2022/12/10 08:48:34;;;;;;;35.25;13.07;;;;;;;-2.85;100.00;100432.25;5015343;28;20050;-74
2022/12/10 08:50:59;;;;;;;24.48;13.02;;;;;;;-2.79;100.00;100440.59;5015556;28;20044;-74
2022/12/10 08:53:25;;;;;;;27.20;12.18;;;;;;;-2.75;100.00;100439.47;4999191;28;20116;-75
2022/12/10 08:55:52;;;;;;;24.67;11.98;;;;;;;-2.69;100.00;100433.78;5015478;28;20033;-74
2022/12/10 08:58:18;;;;;;;24.33;11.55;;;;;;;-2.66;100.00;100440.66;5015444;28;20068;-76
2022/12/10 09:00:43;;;;;;;33.70;11.73;;;;;;;-2.60;100.00;100434.13;4999279;28;20068;-75
2022/12/10 09:03:09;;;;;;;29.13;14.98;;;;;;;-2.56;100.00;100439.13;5015553;28;20037;-74
2022/12/10 09:05:35;;;;;;;21.45;10.10;;;;;;;-2.44;100.00;100451.47;4999175;28;20431;-74
2022/12/10 09:08:01;;;;;;;15.90;8.43;;;;;;;-2.44;100.00;100435.66;4999027;28;20489;-77
2022/12/10 09:10:27;;;;;;;21.73;10.38;;;;;;;-2.32;100.00;100449.00;5002060;28;20347;-74
2022/12/10 09:12:53;;;;;;;18.60;7.75;;;;;;;-2.28;100.00;100443.41;5002932;28;20033;-74
2022/12/10 09:15:19;;;;;;;15.70;7.15;;;;;;;-2.23;100.00;100443.94;5051872;28;20476;-74
2022/12/10 09:17:45;;;;;;;17.75;9.63;;;;;;;-2.13;100.00;100444.19;5002891;28;20037;-74
2022/12/10 09:20:12;;;;;;;20.38;9.77;;;;;;;-2.07;100.00;100440.28;5035246;28;20033;-75
2022/12/10 09:22:39;;;;;;;22.67;9.40;;;;;;;-2.05;100.00;100439.25;5019480;28;20460;-73
2022/12/10 09:25:06;;;;;;;23.50;8.80;;;;;;;-1.99;100.00;100427.44;5019108;28;20033;-76
2022/12/10 09:27:32;;;;;;;20.08;8.82;;;;;;;-1.88;100.00;100432.00;5002541;28;20471;-74
2022/12/10 09:29:58;;;;;;;18.63;8.82;;;;;;;-1.77;100.00;100432.97;5035387;28;20038;-74
2022/12/10 09:32:24;;;;;;;16.98;9.75;;;;;;;-1.70;100.00;100429.91;5002619;28;20033;-75
2022/12/10 09:34:53;;;;;;;20.02;9.50;;;;;;;-1.59;100.00;100432.63;5001886;28;20042;-74
2022/12/10 09:37:19;;;;;;;23.23;11.18;;;;;;;-1.56;100.00;100435.91;5002295;28;20428;-73
2022/12/10 09:39:45;;;;;;;23.02;10.93;;;;;;;-1.58;100.00;100434.34;5034757;28;20494;-74
2022/12/10 09:42:16;;;;;;;37.28;15.48;;;;;;;-1.56;100.00;100438.56;5018509;28;20121;-74
2022/12/10 09:44:52;;;;;;;30.00;13.13;;;;;;;-1.38;100.00;100440.84;5018901;28;20033;-74
2022/12/10 09:47:18;;;;;;;33.60;13.57;;;;;;;-1.26;100.00;100436.53;5002454;28;20121;-74
2022/12/10 09:50:06;;;;;;;41.65;15.20;;;;;;;-1.16;100.00;100435.75;5002136;28;20041;-74
2022/12/10 09:52:37;;;;;;;53.50;17.00;;;;;;;-1.06;100.00;100435.94;5034531;28;20032;-75
2022/12/10 09:55:10;;;;;;;31.63;13.32;;;;;;;-1.02;100.00;100426.03;5002067;28;20040;-74
2022/12/10 09:57:40;;;;;;;;;;;;;;;-0.95;100.00;100427.28;5035328;28;20130;-73
2022/12/10 10:00:29;;;;;;;22.23;10.13;;;;;;;-0.97;100.00;100435.28;5034747;28;19909;-75
2022/12/10 10:02:58;;;;;;;19.42;8.02;;;;;;;-0.90;100.00;100435.69;5034986;28;20060;-75
2022/12/10 10:05:29;;;;;;;15.95;7.90;;;;;;;-0.82;100.00;100443.91;5034605;28;20029;-75
2022/12/10 10:08:01;;;;;;;15.10;7.97;;;;;;;-0.75;100.00;100439.03;5017835;28;20040;-79
2022/12/10 10:10:38;;;;;;;19.02;7.72;;;;;;;-0.77;100.00;100430.38;5001843;28;20542;-79
2022/12/10 10:13:31;;;;;;;22.48;9.30;;;;;;;-0.69;100.00;100439.44;5034409;28;20029;-79
2022/12/10 10:16:09;;;;;;;25.58;12.02;;;;;;;-0.67;100.00;100434.03;5035998;28;20034;-79
2022/12/10 10:18:39;;;;;;;31.13;15.30;;;;;;;-0.53;100.00;100439.16;5017658;28;20101;-79
2022/12/10 10:21:11;;;;;;;37.53;16.10;;;;;;;-0.47;100.00;100440.50;5018042;28;20048;-80
2022/12/10 10:23:37;;;;;;;37.97;19.08;;;;;;;-0.38;100.00;100438.97;5033856;28;20108;-79
2022/12/10 10:26:02;;;;;;;43.53;21.50;;;;;;;-0.38;100.00;100431.06;5017430;28;20041;-79
2022/12/10 10:28:28;;;;;;;56.95;26.48;;;;;;;-0.29;100.00;100439.16;5017584;28;20034;-80
2022/12/10 10:30:54;;;;;;;48.60;19.38;;;;;;;-0.21;100.00;100441.22;5017631;28;20037;-79
2022/12/10 10:33:20;;;;;;;41.15;17.75;;;;;;;-0.16;100.00;100435.56;5035305;28;20044;-79
2022/12/10 10:36:04;;;;;;;42.30;18.25;;;;;;;-0.01;100.00;100435.25;5034029;28;20041;-80
2022/12/10 10:38:30;;;;;;;32.95;15.27;;;;;;;-0.17;100.00;100410.97;5033953;28;20171;-80
2022/12/10 10:40:57;;;;;;;23.55;12.05;;;;;;;0.13;100.00;100447.47;5034143;28;20116;-79
2022/12/10 10:43:31;;;;;;;38.47;18.40;;;;;;;0.13;100.00;100436.03;5017819;28;20045;-80
2022/12/10 10:46:00;;;;;;;34.88;16.90;;;;;;;0.22;100.00;100445.91;5034216;28;20096;-78
2022/12/10 10:48:27;;;;;;;37.25;16.45;;;;;;;0.33;100.00;100453.03;5034868;28;20108;-77
2022/12/10 10:51:05;;;;;;;40.30;18.55;;;;;;;0.29;100.00;100430.41;5001069;28;20026;-76
2022/12/10 10:53:32;;;;;;;37.33;16.73;;;;;;;0.37;100.00;100428.88;5033995;28;20140;-77
2022/12/10 10:56:24;;;;;;;36.75;19.63;;;;;;;0.81;100.00;100443.06;5017332;28;20037;-76
2022/12/10 10:58:55;;;;;;;44.13;19.08;;;;;;;0.91;100.00;100445.00;5001266;28;20048;-76
2022/12/10 11:01:24;;;;;;;33.92;16.52;;;;;;;0.98;100.00;100438.25;5017209;28;20045;-76
2022/12/10 11:03:54;;;;;;;32.75;15.77;;;;;;;1.14;100.00;100436.06;4985167;28;20411;-77
2022/12/10 11:06:20;;;;;;;19.25;9.75;;;;;;;1.34;100.00;100450.34;5016536;28;20479;-76
2022/12/10 11:08:46;;;;;;;22.10;11.00;;;;;;;1.36;100.00;100423.75;5000884;28;20044;-76
2022/12/10 11:11:20;;;;;;;23.95;11.82;;;;;;;1.48;100.00;100441.28;5000652;28;20022;-76
2022/12/10 11:13:46;;;;;;;23.92;10.88;;;;;;;1.54;100.00;100435.50;5033161;28;20029;-76
2022/12/10 11:16:20;;;;;;;23.05;11.45;;;;;;;1.62;100.00;100437.50;5000360;28;20064;-76
2022/12/10 11:19:02;;;;;;;19.92;9.18;;;;;;;1.91;100.00;100443.06;5000575;28;20121;-76
2022/12/10 11:21:32;;;;;;;28.05;13.00;;;;;;;1.76;100.00;100434.56;5001040;28;20034;-75
2022/12/10 11:23:58;;;;;;;27.00;12.45;;;;;;;1.70;100.00;100437.72;5000317;28;20052;-75
2022/12/10 11:27:02;;;;;;;23.20;13.40;;;;;;;1.86;100.00;100432.00;5033434;28;20040;-75
2022/12/10 11:29:31;;;;;;;22.90;11.25;;;;;;;1.82;100.00;100427.91;5033124;28;20037;-75